Bandelier National Monument, New Mexico
Current Conditions -  °F | °C
As of 8:15 PM on Wednesday 22 Oct 2014 (Local Time) from KLAM Reporting Station
Clear Clear  
Wind Chill: 58°   Ceiling: Unl
Heat Index: 58°   Visibility: 10mi
Dew Point: 35°   Wind: 8mph
Humidity: 41%   Direction: 320°NW
Pressure: 30.26"   Gusts: NA
Location:  35.8375°N, 106.349°W
Report Text: KLAM 230215Z AUTO 32007KT 10SM CLR 15/02 A3026 RMK AO2 T01470016
Loading
Personal Weather Stations






























Interactive Weather Map
Tropical Storm Tracking
New forecast layout! Learn more

10-Day Weather Forecast

Advertisements
Track Severe Weather on mobile